createdAt,value
2023-01-10T00:03:13.494Z,2.20
2023-01-10T00:07:16.191Z,1.83
2023-01-10T00:11:37.915Z,1.80
2023-01-10T00:15:40.695Z,2.07
2023-01-10T00:19:43.419Z,2.30
2023-01-10T00:23:46.212Z,3.63
2023-01-10T00:27:57.732Z,2.27
2023-01-10T00:32:00.708Z,2.43
2023-01-10T00:36:05.932Z,2.83
2023-01-10T00:40:10.569Z,2.37
2023-01-10T00:44:13.675Z,1.93
2023-01-10T00:48:17.140Z,1.50
2023-01-10T00:52:19.869Z,3.90
2023-01-10T00:56:22.609Z,1.97
2023-01-10T01:00:26.840Z,2.43
2023-01-10T01:04:34.021Z,2.10
2023-01-10T01:08:36.765Z,1.60
2023-01-10T01:12:39.490Z,2.17
2023-01-10T01:16:43.874Z,3.67
2023-01-10T01:20:46.756Z,2.40
2023-01-10T01:24:49.486Z,2.23
2023-01-10T01:28:52.500Z,3.03
2023-01-10T01:32:56.802Z,1.63
2023-01-10T01:37:00.041Z,2.00
2023-01-10T01:41:02.802Z,1.40
2023-01-10T01:45:32.528Z,2.00
2023-01-10T01:49:39.918Z,2.00
2023-01-10T01:53:44.970Z,1.47
2023-01-10T01:57:48.394Z,1.30
2023-01-10T02:01:53.719Z,1.10
2023-01-10T02:05:58.007Z,0.87
2023-01-10T02:10:04.230Z,1.30
2023-01-10T02:14:07.555Z,1.23
2023-01-10T02:18:10.545Z,1.97
2023-01-10T02:22:38.489Z,1.40
2023-01-10T02:27:20.367Z,2.27
2023-01-10T02:31:37.563Z,1.00
2023-01-10T02:35:59.159Z,1.13
2023-01-10T02:40:08.605Z,1.17
2023-01-10T02:44:18.063Z,1.10
2023-01-10T02:48:22.717Z,0.87
2023-01-10T02:52:29.558Z,1.37
2023-01-10T02:56:51.680Z,1.03
2023-01-10T03:00:59.204Z,1.30
2023-01-10T03:05:06.480Z,1.80
2023-01-10T03:09:17.588Z,1.50
2023-01-10T03:13:22.870Z,1.73
2023-01-10T03:17:26.968Z,2.60
2023-01-10T03:21:31.825Z,1.60
2023-01-10T03:25:38.460Z,1.70
2023-01-10T03:29:44.493Z,2.03
2023-01-10T03:33:48.606Z,2.47
2023-01-10T03:37:57.172Z,1.93
2023-01-10T03:42:08.740Z,1.90
2023-01-10T03:46:14.526Z,2.07
2023-01-10T03:50:20.170Z,1.80
2023-01-10T03:54:22.805Z,1.80
2023-01-10T03:58:27.371Z,1.80
2023-01-10T04:02:32.427Z,3.07
2023-01-10T04:06:35.413Z,3.67
2023-01-10T04:10:38.422Z,2.83
2023-01-10T04:14:43.009Z,2.30
2023-01-10T04:18:45.647Z,2.60
2023-01-10T04:22:49.789Z,2.50
2023-01-10T04:26:52.548Z,4.53
2023-01-10T04:30:56.650Z,2.60
2023-01-10T04:34:59.329Z,3.00
2023-01-10T04:39:01.981Z,2.50
2023-01-10T04:43:05.018Z,4.77
2023-01-10T04:47:09.099Z,2.30
2023-01-10T04:51:11.755Z,3.27
2023-01-10T04:55:14.509Z,3.97
2023-01-10T04:59:17.520Z,3.13
2023-01-10T05:03:21.848Z,2.37
2023-01-10T05:07:24.694Z,2.40
2023-01-10T05:11:27.468Z,3.40
2023-01-10T05:15:30.512Z,3.03
2023-01-10T05:19:34.936Z,3.40
2023-01-10T05:23:37.960Z,2.23
2023-01-10T05:27:42.925Z,2.87
2023-01-10T05:31:45.700Z,3.53
2023-01-10T05:35:49.838Z,5.17
2023-01-10T05:39:52.535Z,4.37
2023-01-10T05:43:55.188Z,3.90
2023-01-10T05:47:58.187Z,4.63
2023-01-10T05:52:02.715Z,3.97
2023-01-10T05:56:07.620Z,5.50
2023-01-10T06:00:11.821Z,3.37
2023-01-10T06:04:15.410Z,4.13
2023-01-10T06:08:19.540Z,5.40
2023-01-10T06:12:22.535Z,4.13
2023-01-10T06:16:25.454Z,4.13
2023-01-10T06:20:28.365Z,3.00
2023-01-10T06:24:32.724Z,5.83
2023-01-10T06:28:35.489Z,4.90
2023-01-10T06:32:38.592Z,5.63
2023-01-10T06:36:41.988Z,4.47
2023-01-10T06:40:46.076Z,3.40
2023-01-10T06:44:48.849Z,4.13
2023-01-10T06:48:51.536Z,2.73
2023-01-10T06:52:58.092Z,4.00
2023-01-10T06:57:02.140Z,5.40
2023-01-10T07:01:05.106Z,4.53
2023-01-10T07:05:11.232Z,5.23
2023-01-10T07:09:14.439Z,4.70
2023-01-10T07:13:18.435Z,4.23
2023-01-10T07:17:21.239Z,2.30
2023-01-10T07:21:24.130Z,2.80
2023-01-10T07:25:27.808Z,3.30
2023-01-10T07:29:32.177Z,6.13
2023-01-10T07:33:34.906Z,4.07
2023-01-10T07:37:37.592Z,4.83
2023-01-10T07:41:40.342Z,5.33
2023-01-10T07:45:44.770Z,5.90
2023-01-10T07:49:47.515Z,5.57
2023-01-10T07:53:50.156Z,3.63
2023-01-10T07:57:52.969Z,5.03
2023-01-10T08:01:57.037Z,5.27
2023-01-10T08:06:01.053Z,5.23
2023-01-10T08:10:03.896Z,4.00
2023-01-10T08:14:06.699Z,6.60
2023-01-10T08:18:10.805Z,5.10
2023-01-10T08:22:13.676Z,5.43
2023-01-10T08:26:16.642Z,5.80
2023-01-10T08:30:19.780Z,5.60
2023-01-10T08:34:24.277Z,3.90
2023-01-10T08:38:27.240Z,5.73
2023-01-10T08:42:30.003Z,3.73
2023-01-10T08:46:32.993Z,4.90
2023-01-10T08:50:37.588Z,5.70
2023-01-10T08:54:40.545Z,7.63
2023-01-10T08:58:43.575Z,5.30
2023-01-10T09:02:46.364Z,7.00
2023-01-10T09:06:50.473Z,5.47
2023-01-10T09:10:53.263Z,5.53
2023-01-10T09:14:56.285Z,7.03
2023-01-10T09:18:59.265Z,8.33
2023-01-10T09:23:08.379Z,4.73
2023-01-10T09:27:11.900Z,5.87
2023-01-10T09:31:14.615Z,5.20
2023-01-10T09:35:17.407Z,6.13
2023-01-10T09:39:22.103Z,5.73
2023-01-10T09:43:31.209Z,5.80
2023-01-10T09:47:37.857Z,4.37
2023-01-10T09:51:43.039Z,4.43
2023-01-10T09:55:49.893Z,5.80
2023-01-10T09:59:54.418Z,6.63
2023-01-10T10:04:04.246Z,4.67
2023-01-10T10:08:17.667Z,6.10
2023-01-10T10:12:27.592Z,7.20
2023-01-10T10:16:38.651Z,7.73
2023-01-10T10:20:50.602Z,8.97
2023-01-10T10:25:01.006Z,9.37
2023-01-10T10:29:20.124Z,5.80
2023-01-10T10:33:34.476Z,3.63
2023-01-10T10:37:39.847Z,9.33
2023-01-10T10:41:45.027Z,9.37
2023-01-10T10:45:52.071Z,6.60
2023-01-10T10:50:00.427Z,6.40
2023-01-10T10:54:03.373Z,5.77
2023-01-10T10:58:08.274Z,4.87
2023-01-10T11:02:31.210Z,7.07
2023-01-10T11:06:34.545Z,4.73
2023-01-10T11:10:38.355Z,6.67
2023-01-10T11:14:42.647Z,5.97
2023-01-10T11:18:47.567Z,8.70
2023-01-10T11:22:53.254Z,6.93
2023-01-10T11:26:57.706Z,8.27
2023-01-10T11:31:01.342Z,6.63
2023-01-10T11:35:09.337Z,7.43
2023-01-10T11:39:16.948Z,7.30
2023-01-10T11:43:29.085Z,6.67
2023-01-10T11:47:35.013Z,7.03
2023-01-10T11:51:46.696Z,4.93
2023-01-10T11:55:49.938Z,4.57
2023-01-10T11:59:53.662Z,7.23
2023-01-10T12:03:56.746Z,8.13
2023-01-10T12:08:06.132Z,8.70
2023-01-10T12:12:22.592Z,6.40
2023-01-10T12:16:27.428Z,7.40
2023-01-10T12:20:32.981Z,6.50
2023-01-10T12:24:38.025Z,10.07
2023-01-10T12:28:43.131Z,10.87
2023-01-10T12:32:49.005Z,8.47
2023-01-10T12:36:59.515Z,12.53
2023-01-10T12:41:03.825Z,9.70
2023-01-10T12:45:11.650Z,14.27
2023-01-10T12:49:19.456Z,11.10
2023-01-10T12:53:30.373Z,9.13
2023-01-10T12:57:40.636Z,7.77
2023-01-10T13:01:44.079Z,7.10
2023-01-10T13:05:49.515Z,8.07
2023-01-10T13:09:52.451Z,10.27
2023-01-10T13:13:59.492Z,5.43
2023-01-10T13:18:04.245Z,7.57
2023-01-10T13:22:21.344Z,7.97
2023-01-10T13:26:24.249Z,7.03
2023-01-10T13:30:30.437Z,9.30
2023-01-10T13:34:35.248Z,9.10
2023-01-10T13:38:45.868Z,7.17
2023-01-10T13:43:34.220Z,5.23
2023-01-10T13:48:03.408Z,7.33
2023-01-10T13:52:29.689Z,8.23
2023-01-10T13:56:38.486Z,6.63
2023-01-10T14:01:07.671Z,6.10
2023-01-10T14:05:18.289Z,6.90
2023-01-10T14:09:45.610Z,6.07
2023-01-10T14:13:52.121Z,8.83
2023-01-10T14:17:58.148Z,5.07
2023-01-10T14:22:03.575Z,8.50
2023-01-10T14:26:06.592Z,11.13
2023-01-10T14:30:16.775Z,8.47
2023-01-10T14:34:22.239Z,10.37
2023-01-10T14:38:28.898Z,10.97
2023-01-10T14:42:31.803Z,8.10
2023-01-10T14:46:40.824Z,8.37
2023-01-10T14:50:44.309Z,6.87
2023-01-10T14:54:48.611Z,8.07
2023-01-10T14:58:51.400Z,8.37
2023-01-10T15:02:54.382Z,7.30
2023-01-10T15:06:59.776Z,6.67
2023-01-10T15:11:06.748Z,11.43
2023-01-10T15:15:14.974Z,8.13
2023-01-10T15:19:20.021Z,10.40
2023-01-10T15:23:24.944Z,10.03
2023-01-10T15:27:29.543Z,10.13
2023-01-10T15:31:32.644Z,11.50
2023-01-10T15:35:37.000Z,16.67
2023-01-10T15:39:41.686Z,11.20
2023-01-10T15:43:46.057Z,11.47
2023-01-10T15:47:55.135Z,9.37
2023-01-10T15:51:58.478Z,9.30
2023-01-10T15:56:10.184Z,11.40
2023-01-10T16:00:18.970Z,10.20
2023-01-10T16:04:21.991Z,8.07
2023-01-10T16:08:26.080Z,10.13
2023-01-10T16:12:52.257Z,10.43
2023-01-10T16:16:56.624Z,12.97
2023-01-10T16:21:01.823Z,9.57
2023-01-10T16:25:04.609Z,13.33
2023-01-10T16:29:07.292Z,15.20
2023-01-10T16:33:15.627Z,12.97
2023-01-10T16:37:18.347Z,11.67
2023-01-10T16:41:38.376Z,24.33
2023-01-10T16:45:41.817Z,13.60
2023-01-10T16:49:46.911Z,9.97
2023-01-10T16:53:50.288Z,13.33
2023-01-10T16:57:53.014Z,12.67
2023-01-10T17:01:57.962Z,10.63
2023-01-10T17:06:02.311Z,11.13
2023-01-10T17:10:05.426Z,8.47
2023-01-10T17:14:08.420Z,9.77
2023-01-10T17:18:11.640Z,9.10
2023-01-10T17:22:15.799Z,11.73
2023-01-10T17:26:19.419Z,10.17
2023-01-10T17:30:22.221Z,9.87
2023-01-10T17:34:25.070Z,7.87
2023-01-10T17:38:29.676Z,7.20
2023-01-10T17:42:32.457Z,10.10
2023-01-10T17:46:35.416Z,11.57
2023-01-10T17:50:38.222Z,9.53
2023-01-10T17:54:42.291Z,9.37
2023-01-10T17:58:47.157Z,9.73
2023-01-10T18:02:50.013Z,10.50
2023-01-10T18:06:52.791Z,7.43
2023-01-10T18:11:01.353Z,8.63
2023-01-10T18:15:05.250Z,9.00
2023-01-10T18:19:08.601Z,10.97
2023-01-10T18:23:22.494Z,7.33
2023-01-10T18:27:27.525Z,6.63
2023-01-10T18:31:30.237Z,7.47
2023-01-10T18:35:33.145Z,10.43
2023-01-10T18:39:35.842Z,7.30
2023-01-10T18:43:40.191Z,7.53
2023-01-10T18:47:43.124Z,7.20
2023-01-10T18:51:45.818Z,5.77
2023-01-10T18:55:54.119Z,8.03
2023-01-10T18:59:58.634Z,7.43
2023-01-10T19:04:04.917Z,9.53
2023-01-10T19:08:08.281Z,6.23
2023-01-10T19:12:11.219Z,9.03
2023-01-10T19:16:17.886Z,7.57
2023-01-10T19:20:20.814Z,5.00
2023-01-10T19:24:27.364Z,8.00
2023-01-10T19:28:30.549Z,6.50
2023-01-10T19:32:36.094Z,7.67
2023-01-10T19:36:41.372Z,7.20
2023-01-10T19:40:44.693Z,5.90
2023-01-10T19:44:47.614Z,6.23
2023-01-10T19:48:52.157Z,6.30
2023-01-10T19:52:54.852Z,6.93
2023-01-10T19:56:57.572Z,7.40
2023-01-10T20:01:08.152Z,9.40
2023-01-10T20:05:12.568Z,9.20
2023-01-10T20:09:15.499Z,10.73
2023-01-10T20:13:18.248Z,8.43
2023-01-10T20:17:21.619Z,9.30
2023-01-10T20:21:26.118Z,9.00
2023-01-10T20:25:29.046Z,9.50
2023-01-10T20:29:31.756Z,6.93
2023-01-10T20:33:34.767Z,8.33
2023-01-10T20:37:38.912Z,6.73
2023-01-10T20:41:41.595Z,6.57
2023-01-10T20:45:44.316Z,10.07
2023-01-10T20:49:47.276Z,6.23
2023-01-10T20:53:52.367Z,6.20
2023-01-10T20:57:55.086Z,5.83
2023-01-10T21:01:57.948Z,5.83
2023-01-10T21:06:00.941Z,8.37
2023-01-10T21:10:06.134Z,5.13
2023-01-10T21:14:08.901Z,7.93
2023-01-10T21:18:11.988Z,8.00
2023-01-10T21:22:14.665Z,7.37
2023-01-10T21:26:18.688Z,8.87
2023-01-10T21:30:21.543Z,7.33
2023-01-10T21:34:24.421Z,8.90
2023-01-10T21:38:28.540Z,8.70
2023-01-10T21:42:37.884Z,8.77
2023-01-10T21:46:44.447Z,9.87
2023-01-10T21:50:49.847Z,8.93
2023-01-10T21:54:52.593Z,6.80
2023-01-10T21:58:56.705Z,6.70
2023-01-10T22:02:59.725Z,8.53
2023-01-10T22:07:02.757Z,7.33
2023-01-10T22:11:05.590Z,6.00
2023-01-10T22:15:11.529Z,7.00
2023-01-10T22:19:14.432Z,7.47
2023-01-10T22:23:17.383Z,6.10
2023-01-10T22:27:20.653Z,6.13
2023-01-10T22:31:25.376Z,6.70
2023-01-10T22:35:28.116Z,8.40
2023-01-10T22:39:30.886Z,9.10
2023-01-10T22:43:33.591Z,7.37
2023-01-10T22:47:38.393Z,5.50
2023-01-10T22:51:41.357Z,6.00
2023-01-10T22:55:44.271Z,5.40
2023-01-10T22:59:46.963Z,4.87
2023-01-10T23:03:51.278Z,6.70
2023-01-10T23:07:54.304Z,5.20
2023-01-10T23:11:57.282Z,6.30
2023-01-10T23:16:01.515Z,7.40
2023-01-10T23:20:06.709Z,8.53
2023-01-10T23:24:09.765Z,7.73
2023-01-10T23:28:12.652Z,7.37
2023-01-10T23:32:15.381Z,7.33
2023-01-10T23:36:19.936Z,6.80
2023-01-10T23:40:22.646Z,6.37
2023-01-10T23:44:28.689Z,7.93
2023-01-10T23:48:31.479Z,4.50
2023-01-10T23:52:36.049Z,7.57
2023-01-10T23:56:38.760Z,6.70
